createdAt,value
2019-03-23T00:04:55.427Z,78.99
2019-03-23T00:09:58.717Z,78.55
2019-03-23T00:15:01.317Z,79.34
2019-03-23T00:20:04.401Z,79.45
2019-03-23T00:25:07.268Z,78.86
2019-03-23T00:30:10.193Z,78.28
2019-03-23T00:35:12.803Z,78.30
2019-03-23T00:40:16.303Z,78.65
2019-03-23T00:45:18.828Z,78.67
2019-03-23T00:50:21.201Z,78.83
2019-03-23T00:55:23.591Z,79.04
2019-03-23T01:00:25.988Z,78.93
2019-03-23T01:05:28.455Z,78.28
2019-03-23T01:10:30.939Z,78.78
2019-03-23T01:15:33.403Z,79.43
2019-03-23T01:20:35.786Z,79.17
2019-03-23T01:25:39.132Z,79.36
2019-03-23T01:30:41.555Z,79.73
2019-03-23T01:35:44.035Z,80.63
2019-03-23T01:40:46.532Z,80.32
2019-03-23T01:45:49.919Z,80.34
2019-03-23T01:51:14.535Z,80.22
2019-03-23T01:56:18.903Z,80.74
2019-03-23T02:01:21.255Z,80.03
2019-03-23T02:06:23.637Z,80.05
2019-03-23T02:11:26.009Z,80.72
2019-03-23T02:16:28.503Z,80.49
2019-03-23T02:21:30.970Z,80.54
2019-03-23T02:26:35.365Z,80.49
2019-03-23T02:31:37.991Z,79.94
2019-03-23T02:36:40.360Z,80.54
2019-03-23T02:41:42.738Z,80.18
2019-03-23T02:46:45.089Z,81.08
2019-03-23T02:51:47.464Z,80.76
2019-03-23T02:56:49.916Z,80.70
2019-03-23T03:01:52.261Z,80.86
2019-03-23T03:06:54.644Z,80.30
2019-03-23T03:11:57.030Z,79.81
2019-03-23T03:16:59.501Z,80.86
2019-03-23T03:22:02.093Z,80.76
2019-03-23T03:27:04.580Z,80.87
2019-03-23T03:32:07.180Z,80.83
2019-03-23T03:37:09.553Z,81.46
2019-03-23T03:42:12.040Z,81.49
2019-03-23T03:47:14.449Z,81.39
2019-03-23T03:52:16.848Z,81.62
2019-03-23T03:57:20.214Z,81.36
2019-03-23T04:02:22.617Z,81.98
2019-03-23T04:07:24.997Z,82.67
2019-03-23T04:12:27.604Z,81.93
2019-03-23T04:17:30.053Z,80.94
2019-03-23T04:22:32.506Z,80.85
2019-03-23T04:27:34.872Z,81.60
2019-03-23T04:32:37.332Z,81.21
2019-03-23T04:37:39.708Z,81.17
2019-03-23T04:42:42.267Z,81.99
2019-03-23T04:47:44.655Z,82.72
2019-03-23T04:52:47.037Z,83.73
2019-03-23T04:57:53.202Z,84.42
2019-03-23T05:02:55.622Z,83.94
2019-03-23T05:07:58.008Z,82.53
2019-03-23T05:13:00.784Z,82.01
2019-03-23T05:18:03.329Z,81.85
2019-03-23T05:23:05.796Z,81.06
2019-03-23T05:28:08.559Z,80.86
2019-03-23T05:33:11.015Z,80.14
2019-03-23T05:38:13.400Z,80.72
2019-03-23T05:43:15.773Z,79.73
2019-03-23T05:48:18.236Z,79.71
2019-03-23T05:53:20.829Z,79.55
2019-03-23T05:58:23.251Z,79.26
2019-03-23T06:03:25.603Z,78.84
2019-03-23T06:08:27.991Z,78.22
2019-03-23T06:13:30.353Z,78.45
2019-03-23T06:18:32.804Z,77.87
2019-03-23T06:23:35.166Z,78.02
2019-03-23T06:28:37.568Z,78.19
2019-03-23T06:33:39.912Z,77.81
2019-03-23T06:38:42.305Z,78.01
2019-03-23T06:43:44.671Z,78.61
2019-03-23T06:48:47.054Z,78.35
2019-03-23T06:53:49.538Z,78.30
2019-03-23T06:58:51.981Z,78.21
2019-03-23T07:03:54.337Z,78.37
2019-03-23T07:08:56.687Z,77.20
2019-03-23T07:13:59.055Z,77.90
2019-03-23T07:19:01.468Z,76.76
2019-03-23T07:24:04.023Z,75.60
2019-03-23T07:29:06.381Z,74.67
2019-03-23T07:34:08.757Z,75.31
2019-03-23T07:39:11.142Z,75.83
2019-03-23T07:44:13.520Z,74.69
2019-03-23T07:49:16.031Z,75.01
2019-03-23T07:54:18.387Z,74.17
2019-03-23T07:59:20.813Z,72.65
2019-03-23T08:04:23.167Z,72.94
2019-03-23T08:09:25.519Z,71.04
2019-03-23T08:14:27.882Z,70.60
2019-03-23T08:19:30.255Z,70.46
2019-03-23T08:24:32.584Z,69.42
2019-03-23T08:29:34.990Z,67.24
2019-03-23T08:34:37.328Z,66.65
2019-03-23T08:39:48.094Z,64.21
2019-03-23T08:44:44.008Z,62.80
2019-03-23T08:49:46.358Z,61.83
2019-03-23T08:54:48.740Z,60.69
2019-03-23T08:59:51.334Z,60.84
2019-03-23T09:17:15.810Z,54.97
2019-03-23T09:22:18.237Z,53.74
2019-03-23T09:27:20.583Z,53.46
2019-03-23T09:32:22.930Z,49.83
2019-03-23T09:37:25.316Z,50.93
2019-03-23T09:42:27.748Z,50.11
2019-03-23T09:47:30.137Z,52.13
2019-03-23T09:52:32.496Z,52.08
2019-03-23T09:57:36.058Z,51.88
2019-03-23T10:02:38.419Z,51.30
2019-03-23T10:07:40.758Z,49.25
2019-03-23T10:12:43.340Z,47.82
2019-03-23T10:17:45.759Z,44.39
2019-03-23T10:22:48.101Z,44.06
2019-03-23T10:27:51.556Z,44.93
2019-03-23T10:32:54.040Z,43.17
2019-03-23T10:37:56.400Z,41.92
2019-03-23T10:42:58.759Z,42.08
2019-03-23T10:48:01.163Z,40.71
2019-03-23T10:53:03.523Z,41.94
2019-03-23T10:58:05.887Z,40.85
2019-03-23T11:03:08.264Z,41.87
2019-03-23T11:08:10.611Z,41.30
2019-03-23T11:13:12.972Z,41.55
2019-03-23T11:18:15.637Z,41.64
2019-03-23T11:23:17.977Z,45.75
2019-03-23T11:28:20.315Z,44.40
2019-03-23T11:33:22.807Z,47.62
2019-03-23T11:38:25.158Z,48.30
2019-03-23T11:43:27.561Z,47.74
2019-03-23T11:48:29.934Z,45.74
2019-03-23T11:53:32.492Z,46.25
2019-03-23T11:58:34.865Z,48.72
2019-03-23T12:03:37.269Z,47.79
2019-03-23T12:08:39.711Z,47.56
2019-03-23T12:13:42.092Z,52.16
2019-03-23T12:18:44.428Z,52.60
2019-03-23T12:23:47.285Z,52.72
2019-03-23T12:28:49.775Z,52.85
2019-03-23T12:33:52.133Z,52.83
2019-03-23T12:38:54.493Z,52.30
2019-03-23T12:43:56.897Z,52.17
2019-03-23T12:48:59.278Z,51.50
2019-03-23T12:54:01.839Z,52.44
2019-03-23T12:59:04.203Z,52.55
2019-03-23T13:04:06.572Z,54.00
2019-03-23T13:09:08.939Z,56.09
2019-03-23T13:14:11.316Z,56.64
2019-03-23T13:19:14.011Z,58.02
2019-03-23T13:24:16.354Z,58.56
2019-03-23T13:29:18.727Z,57.95
2019-03-23T13:34:21.189Z,59.41
2019-03-23T13:39:24.573Z,58.17
2019-03-23T13:44:26.991Z,55.38
2019-03-23T13:49:29.474Z,54.27
2019-03-23T13:54:31.827Z,55.26
2019-03-23T13:59:34.216Z,54.12
2019-03-23T14:04:36.554Z,54.81
2019-03-23T14:09:38.910Z,52.00
2019-03-23T14:14:41.312Z,51.94
2019-03-23T14:19:43.695Z,52.03
2019-03-23T14:24:46.258Z,51.11
2019-03-23T14:29:48.850Z,51.92
2019-03-23T14:34:51.300Z,51.59
2019-03-23T14:39:53.658Z,51.09
2019-03-23T14:44:56.070Z,52.82
2019-03-23T14:49:58.464Z,52.64
2019-03-23T14:55:00.806Z,52.41
2019-03-23T15:00:04.821Z,53.38
2019-03-23T15:05:07.407Z,54.58
2019-03-23T15:10:10.305Z,53.67
2019-03-23T15:15:12.766Z,55.16
2019-03-23T15:20:15.198Z,54.26
2019-03-23T15:25:17.570Z,54.88
2019-03-23T15:30:20.420Z,56.09
2019-03-23T15:35:22.773Z,56.12
2019-03-23T15:40:25.122Z,56.66
2019-03-23T15:45:27.496Z,57.84
2019-03-23T15:50:29.883Z,57.84
2019-03-23T15:55:32.227Z,58.27
2019-03-23T16:00:34.707Z,60.61
2019-03-23T16:05:37.114Z,61.87
2019-03-23T16:10:39.471Z,62.13
2019-03-23T16:15:41.828Z,63.06
2019-03-23T16:20:44.319Z,62.50
2019-03-23T16:25:46.687Z,62.15
2019-03-23T16:30:49.241Z,63.35
2019-03-23T16:35:51.646Z,64.74
2019-03-23T16:40:54.054Z,64.88
2019-03-23T16:45:56.448Z,66.15
2019-03-23T16:50:58.829Z,67.11
2019-03-23T16:56:01.339Z,67.71
2019-03-23T17:01:03.767Z,68.30
2019-03-23T17:06:06.294Z,69.19
2019-03-23T17:11:08.672Z,69.40
2019-03-23T17:16:11.017Z,70.34
2019-03-23T17:21:13.415Z,70.80
2019-03-23T17:26:15.757Z,71.17
2019-03-23T17:31:18.126Z,71.76
2019-03-23T17:36:20.526Z,72.42
2019-03-23T17:41:22.932Z,72.83
2019-03-23T17:46:27.687Z,73.19
2019-03-23T17:51:29.676Z,73.03
2019-03-23T17:56:32.117Z,73.14
2019-03-23T18:01:34.479Z,73.45
2019-03-23T18:06:36.822Z,73.94
2019-03-23T18:11:39.317Z,73.82
2019-03-23T18:16:41.777Z,74.04
2019-03-23T18:21:44.125Z,74.44
2019-03-23T18:26:46.519Z,74.88
2019-03-23T18:31:49.016Z,74.64
2019-03-23T18:36:52.382Z,74.79
2019-03-23T18:41:54.877Z,74.93
2019-03-23T18:46:58.348Z,74.94
2019-03-23T18:52:00.715Z,75.72
2019-03-23T18:57:03.248Z,76.19
2019-03-23T19:02:05.628Z,76.33
2019-03-23T19:07:08.097Z,77.08
2019-03-23T19:12:10.615Z,77.31
2019-03-23T19:17:14.062Z,77.11
2019-03-23T19:22:16.416Z,77.38
2019-03-23T19:27:18.784Z,77.18
2019-03-23T19:32:21.288Z,77.32
2019-03-23T19:37:23.676Z,77.98
2019-03-23T19:42:26.064Z,78.35
2019-03-23T19:47:29.623Z,78.37
2019-03-23T19:52:33.560Z,79.12
2019-03-23T19:57:36.369Z,79.09
2019-03-23T20:02:38.793Z,78.87
2019-03-23T20:07:41.255Z,78.70
2019-03-23T20:12:43.751Z,78.75
2019-03-23T20:17:46.123Z,79.74
2019-03-23T20:22:48.473Z,80.09
2019-03-23T20:27:50.863Z,80.59
2019-03-23T20:32:54.340Z,80.48
2019-03-23T20:37:56.728Z,80.67
2019-03-23T20:42:59.103Z,80.96
2019-03-23T20:48:02.076Z,80.60
2019-03-23T20:53:04.967Z,80.35
2019-03-23T20:58:07.336Z,80.23
2019-03-23T21:03:09.704Z,80.02
2019-03-23T21:08:12.058Z,79.97
2019-03-23T21:13:14.627Z,79.64
2019-03-23T21:18:16.974Z,79.98
2019-03-23T21:23:19.370Z,79.98
2019-03-23T21:28:21.748Z,79.97
2019-03-23T21:33:24.124Z,79.43
2019-03-23T21:38:26.496Z,79.54
2019-03-23T21:43:28.905Z,79.06
2019-03-23T21:48:31.293Z,78.97
2019-03-23T21:53:33.666Z,78.30
2019-03-23T21:58:36.036Z,78.94
2019-03-23T22:03:38.407Z,78.88
2019-03-23T22:08:40.864Z,79.25
2019-03-23T22:13:43.271Z,79.31
2019-03-23T22:18:46.688Z,78.91
2019-03-23T22:23:49.088Z,79.14
2019-03-23T22:28:51.458Z,78.88
2019-03-23T22:33:54.393Z,78.97
2019-03-23T22:38:56.861Z,78.84
2019-03-23T22:43:59.400Z,78.79
2019-03-23T22:49:01.773Z,78.85
2019-03-23T22:54:04.141Z,78.65
2019-03-23T22:59:06.499Z,78.88
2019-03-23T23:04:08.923Z,79.17
2019-03-23T23:09:11.220Z,79.10
2019-03-23T23:14:13.706Z,78.90
2019-03-23T23:19:16.389Z,79.05
2019-03-23T23:24:18.747Z,79.26
2019-03-23T23:29:22.307Z,79.55
2019-03-23T23:34:24.768Z,79.24
2019-03-23T23:39:27.119Z,79.36
2019-03-23T23:44:29.736Z,79.82
2019-03-23T23:49:32.089Z,80.22
2019-03-23T23:54:34.445Z,81.56
2019-03-23T23:59:36.841Z,82.07
